AXM5414 WMKJ-WBGG
Flight info
| Callsign | AXM5414 |
|---|---|
| Flight time | N/A |
| Altitude | 35000 |
| Route | OMKOM2J OMKOM W401 HOSBA G580 MOXUN MOXUN1A |
| Aircraft | A320/M-SDE3FGHIRWY/LB1 |
Departure
| Time | N/A |
|---|---|
| Airport | Senai International Airport (WMKJ) |
Arrival
| Time | 2026-05-03 20:23 |
|---|---|
| Airport | Kuching International Airport (WBGG) |
| Time | Latitude | Longitude | Altitude | Speed | Heading |
|---|---|---|---|---|---|
| 2026-05-03 20:15 | 1.64402 | 110.41092 | 7442 ft | 251 kts | 73° |
| 2026-05-03 20:15 | 1.64900 | 110.42763 | 6934 ft | 250 kts | 73° |
| 2026-05-03 20:15 | 1.65392 | 110.44418 | 6448 ft | 248 kts | 73° |
| 2026-05-03 20:15 | 1.65883 | 110.46068 | 5935 ft | 246 kts | 73° |
| 2026-05-03 20:16 | 1.66365 | 110.47702 | 5443 ft | 244 kts | 75° |
| 2026-05-03 20:16 | 1.66495 | 110.49348 | 4973 ft | 240 kts | 98° |
| 2026-05-03 20:16 | 1.65938 | 110.50896 | 4555 ft | 235 kts | 123° |
| 2026-05-03 20:16 | 1.64854 | 110.52041 | 4485 ft | 224 kts | 145° |
| 2026-05-03 20:17 | 1.63483 | 110.52723 | 4435 ft | 213 kts | 158° |
| 2026-05-03 20:17 | 1.62142 | 110.53256 | 4375 ft | 208 kts | 158° |
| 2026-05-03 20:17 | 1.60830 | 110.53778 | 4255 ft | 200 kts | 158° |
| 2026-05-03 20:17 | 1.59545 | 110.54290 | 4160 ft | 198 kts | 158° |
| 2026-05-03 20:18 | 1.58249 | 110.54758 | 4061 ft | 199 kts | 169° |
| 2026-05-03 20:18 | 1.56904 | 110.54587 | 3824 ft | 199 kts | 208° |
| 2026-05-03 20:18 | 1.55992 | 110.53581 | 3464 ft | 198 kts | 247° |
| 2026-05-03 20:18 | 1.55488 | 110.52315 | 3192 ft | 194 kts | 249° |
| 2026-05-03 20:19 | 1.54998 | 110.51061 | 2928 ft | 193 kts | 249° |
| 2026-05-03 20:19 | 1.54503 | 110.49815 | 2660 ft | 192 kts | 249° |
| 2026-05-03 20:19 | 1.54015 | 110.48577 | 2441 ft | 191 kts | 249° |
| 2026-05-03 20:19 | 1.53523 | 110.47342 | 2232 ft | 191 kts | 249° |
| 2026-05-03 20:20 | 1.53036 | 110.46122 | 1944 ft | 185 kts | 249° |
| 2026-05-03 20:20 | 1.52575 | 110.44955 | 1686 ft | 176 kts | 249° |
| 2026-05-03 20:20 | 1.52136 | 110.43839 | 1477 ft | 171 kts | 248° |
| 2026-05-03 20:20 | 1.51710 | 110.42767 | 1242 ft | 161 kts | 248° |
| 2026-05-03 20:21 | 1.51306 | 110.41749 | 1026 ft | 155 kts | 248° |
| 2026-05-03 20:21 | 1.50910 | 110.40757 | 870 ft | 153 kts | 248° |
| 2026-05-03 20:21 | 1.50520 | 110.39777 | 694 ft | 152 kts | 248° |
| 2026-05-03 20:21 | 1.50132 | 110.38799 | 508 ft | 151 kts | 248° |
| 2026-05-03 20:22 | 1.49745 | 110.37829 | 309 ft | 150 kts | 248° |
| 2026-05-03 20:22 | 1.49356 | 110.36864 | 102 ft | 149 kts | 248° |
| 2026-05-03 20:22 | 1.49001 | 110.35963 | 63 ft | 122 kts | 248° |
| 2026-05-03 20:22 | 1.48753 | 110.35336 | 70 ft | 72 kts | 248° |
| 2026-05-03 20:23 | 1.48620 | 110.34998 | 76 ft | 41 kts | 251° |
| 2026-05-03 20:23 | 1.48609 | 110.34773 | 76 ft | 27 kts | 279° |
| 2026-05-03 20:23 | 1.48626 | 110.34673 | 78 ft | 9 kts | 278° |
| 2026-05-03 20:23 | 1.48634 | 110.34617 | 71 ft | 8 kts | 278° |
| 2026-05-03 20:24 | 1.48630 | 110.34569 | 74 ft | 6 kts | 247° |
| 2026-05-03 20:24 | 1.48615 | 110.34532 | 70 ft | 5 kts | 249° |
| 2026-05-03 20:24 | 1.48598 | 110.34487 | 70 ft | 11 kts | 249° |
| 2026-05-03 20:24 | 1.48564 | 110.34402 | 70 ft | 14 kts | 249° |
| 2026-05-03 20:25 | 1.48530 | 110.34313 | 73 ft | 14 kts | 248° |
| 2026-05-03 20:25 | 1.48495 | 110.34226 | 75 ft | 14 kts | 249° |
| 2026-05-03 20:25 | 1.48453 | 110.34119 | 69 ft | 18 kts | 249° |
| 2026-05-03 20:25 | 1.48438 | 110.34032 | 78 ft | 9 kts | 299° |
| 2026-05-03 20:26 | 1.48493 | 110.34003 | 71 ft | 8 kts | 338° |
| 2026-05-03 20:26 | 1.48540 | 110.33985 | 72 ft | 4 kts | 339° |
| 2026-05-03 20:26 | 1.48547 | 110.33982 | 70 ft | 0 kts | 339° |
| 2026-05-03 20:26 | 1.48553 | 110.33980 | 72 ft | 2 kts | 339° |
| 2026-05-03 20:27 | 1.48562 | 110.33976 | 70 ft | 2 kts | 338° |
| 2026-05-03 20:27 | 1.48570 | 110.33973 | 73 ft | 0 kts | 338° |